createdAt,value
2023-08-07T00:00:17.403Z,858
2023-08-07T00:02:17.625Z,839
2023-08-07T00:04:17.273Z,768
2023-08-07T00:06:17.881Z,799
2023-08-07T00:08:17.643Z,857
2023-08-07T00:10:17.288Z,829
2023-08-07T00:12:17.779Z,956
2023-08-07T00:14:17.691Z,677
2023-08-07T00:16:17.307Z,842
2023-08-07T00:18:18.036Z,638
2023-08-07T00:20:17.698Z,905
2023-08-07T00:22:17.472Z,813
2023-08-07T00:24:18.054Z,808
2023-08-07T00:26:17.673Z,759
2023-08-07T00:28:17.552Z,839
2023-08-07T00:30:17.288Z,724
2023-08-07T00:32:18.335Z,737
2023-08-07T00:34:18.007Z,854
2023-08-07T00:36:17.563Z,674
2023-08-07T00:38:18.130Z,758
2023-08-07T00:40:17.831Z,663
2023-08-07T00:42:17.511Z,889
2023-08-07T00:44:18.112Z,851
2023-08-07T00:46:17.646Z,809
2023-08-07T00:48:17.390Z,641
2023-08-07T00:50:18.049Z,867
2023-08-07T00:52:20.223Z,835
2023-08-07T00:54:17.316Z,725
2023-08-07T00:56:17.936Z,613
2023-08-07T00:58:17.491Z,852
2023-08-07T01:00:18.108Z,750
2023-08-07T01:02:17.923Z,875
2023-08-07T01:04:17.633Z,818
2023-08-07T01:06:17.301Z,704
2023-08-07T01:08:18.145Z,633
2023-08-07T01:10:17.894Z,728
2023-08-07T01:12:17.571Z,860
2023-08-07T01:14:18.212Z,687
2023-08-07T01:16:17.808Z,719
2023-08-07T01:18:17.767Z,733
2023-08-07T01:20:17.447Z,656
2023-08-07T01:22:18.040Z,773
2023-08-07T01:24:17.621Z,844
2023-08-07T01:26:17.162Z,765
2023-08-07T01:28:17.716Z,686
2023-08-07T01:30:17.434Z,806
2023-08-07T01:32:18.118Z,835
2023-08-07T01:34:17.843Z,648
2023-08-07T01:36:18.936Z,701
2023-08-07T01:38:17.632Z,765
2023-08-07T01:40:17.152Z,705
2023-08-07T01:42:17.834Z,861
2023-08-07T01:44:17.728Z,632
2023-08-07T01:46:17.483Z,766
2023-08-07T01:48:18.189Z,733
2023-08-07T01:50:17.819Z,585
2023-08-07T01:52:17.557Z,815
2023-08-07T01:54:18.198Z,836
2023-08-07T01:56:17.772Z,691
2023-08-07T01:58:17.425Z,851
2023-08-07T02:00:18.111Z,832
2023-08-07T02:02:17.708Z,792
2023-08-07T02:04:17.616Z,751
2023-08-07T02:06:18.178Z,790
2023-08-07T02:08:18.001Z,716
2023-08-07T02:10:17.620Z,706
2023-08-07T02:12:17.365Z,642
2023-08-07T02:14:18.079Z,766
2023-08-07T02:16:17.727Z,757
2023-08-07T02:18:17.522Z,712
2023-08-07T02:20:18.144Z,711
2023-08-07T02:22:17.799Z,764
2023-08-07T02:24:17.439Z,664
2023-08-07T02:26:17.997Z,750
2023-08-07T02:28:17.557Z,830
2023-08-07T02:30:18.183Z,749
2023-08-07T02:32:17.820Z,696
2023-08-07T02:34:17.601Z,754
2023-08-07T02:36:17.196Z,806
2023-08-07T02:38:17.795Z,722
2023-08-07T02:40:17.515Z,842
2023-08-07T02:42:18.085Z,716
2023-08-07T02:44:17.681Z,583
2023-08-07T02:46:17.298Z,697
2023-08-07T02:48:17.906Z,607
2023-08-07T02:50:17.564Z,837
2023-08-07T02:52:17.210Z,704
2023-08-07T02:54:17.791Z,764
2023-08-07T02:56:17.366Z,678
2023-08-07T02:58:18.018Z,798
2023-08-07T03:00:17.675Z,655
2023-08-07T03:02:17.296Z,716
2023-08-07T03:04:17.880Z,522
2023-08-07T03:06:17.446Z,650
2023-08-07T03:08:18.025Z,654
2023-08-07T03:10:17.611Z,780
2023-08-07T03:12:17.234Z,699
2023-08-07T03:14:17.785Z,623
2023-08-07T03:16:17.453Z,687
2023-08-07T03:18:17.280Z,617
2023-08-07T03:20:17.896Z,823
2023-08-07T03:22:17.511Z,666
2023-08-07T03:24:18.109Z,655
2023-08-07T03:26:19.259Z,775
2023-08-07T03:28:17.407Z,798
2023-08-07T03:30:18.090Z,780
2023-08-07T03:32:17.758Z,868
2023-08-07T03:34:17.480Z,867
2023-08-07T03:36:18.107Z,756
2023-08-07T03:38:17.812Z,740
2023-08-07T03:40:17.349Z,696
2023-08-07T03:42:18.062Z,740
2023-08-07T03:44:17.711Z,754
2023-08-07T03:46:17.387Z,666
2023-08-07T03:48:18.092Z,737
2023-08-07T03:50:17.669Z,743
2023-08-07T03:52:17.280Z,631
2023-08-07T03:54:17.985Z,805
2023-08-07T03:56:17.670Z,703
2023-08-07T03:58:17.445Z,848
2023-08-07T04:00:18.229Z,585
2023-08-07T04:02:17.910Z,830
2023-08-07T04:04:17.589Z,638
2023-08-07T04:06:17.316Z,712
2023-08-07T04:08:17.921Z,761
2023-08-07T04:10:17.564Z,748
2023-08-07T04:12:17.289Z,725
2023-08-07T04:14:17.248Z,736
2023-08-07T04:16:18.034Z,781
2023-08-07T04:18:17.876Z,636
2023-08-07T04:20:17.537Z,778
2023-08-07T04:22:18.110Z,813
2023-08-07T04:24:17.743Z,847
2023-08-07T04:26:17.976Z,879
2023-08-07T04:28:17.677Z,726
2023-08-07T04:30:17.310Z,757
2023-08-07T04:32:17.919Z,759
2023-08-07T04:34:17.503Z,665
2023-08-07T04:36:18.202Z,789
2023-08-07T04:38:17.801Z,639
2023-08-07T04:40:17.743Z,780
2023-08-07T04:42:17.548Z,783
2023-08-07T04:44:18.266Z,793
2023-08-07T04:46:18.159Z,672
2023-08-07T04:48:17.463Z,831
2023-08-07T04:50:18.057Z,776
2023-08-07T04:52:25.901Z,635
2023-08-07T04:54:17.869Z,702
2023-08-07T04:56:17.295Z,561
2023-08-07T04:58:17.900Z,835
2023-08-07T05:00:17.868Z,838
2023-08-07T05:02:17.634Z,833
2023-08-07T05:04:17.321Z,741
2023-08-07T05:06:18.039Z,681
2023-08-07T05:08:18.127Z,695
2023-08-07T05:10:17.735Z,776
2023-08-07T05:12:17.401Z,768
2023-08-07T05:14:18.024Z,723
2023-08-07T05:16:17.940Z,788
2023-08-07T05:18:17.770Z,727
2023-08-07T05:20:17.432Z,736
2023-08-07T05:22:18.102Z,723
2023-08-07T05:24:17.722Z,785
2023-08-07T05:26:17.646Z,855
2023-08-07T05:28:17.321Z,818
2023-08-07T05:30:17.812Z,743
2023-08-07T05:32:17.913Z,733
2023-08-07T05:34:17.551Z,715
2023-08-07T05:36:18.230Z,861
2023-08-07T05:38:18.106Z,780
2023-08-07T05:40:17.697Z,731
2023-08-07T05:42:18.101Z,775
2023-08-07T05:44:17.502Z,735
2023-08-07T05:46:17.302Z,640
2023-08-07T05:48:17.948Z,700
2023-08-07T05:50:17.588Z,722
2023-08-07T05:52:17.834Z,735
2023-08-07T05:54:17.725Z,722
2023-08-07T05:56:17.393Z,731
2023-08-07T05:58:17.270Z,726
2023-08-07T06:00:17.539Z,734
2023-08-07T06:02:18.175Z,782
2023-08-07T06:04:17.790Z,689
2023-08-07T06:06:17.601Z,769
2023-08-07T06:08:17.218Z,772
2023-08-07T06:10:17.847Z,730
2023-08-07T06:12:17.450Z,752
2023-08-07T06:14:18.096Z,729
2023-08-07T06:16:17.723Z,649
2023-08-07T06:18:17.551Z,725
2023-08-07T06:20:17.827Z,736
2023-08-07T06:22:17.545Z,752
2023-08-07T06:24:18.257Z,682
2023-08-07T08:16:17.605Z,732
2023-08-07T08:18:17.456Z,825
2023-08-07T08:20:17.797Z,669
2023-08-07T08:22:17.509Z,853
2023-08-07T08:24:18.134Z,826
2023-08-07T08:26:17.276Z,801
2023-08-07T08:28:18.002Z,774
2023-08-07T08:30:17.771Z,845
2023-08-07T08:32:17.726Z,817
2023-08-07T08:34:17.282Z,872
2023-08-07T08:36:17.406Z,793
2023-08-07T08:38:21.243Z,790
2023-08-07T08:40:17.301Z,738
2023-08-07T08:42:17.647Z,759
2023-08-07T08:44:17.282Z,812
2023-08-07T08:46:17.215Z,767
2023-08-07T08:48:17.888Z,839
2023-08-07T08:50:17.258Z,828
2023-08-07T08:52:17.790Z,820
2023-08-07T08:54:17.926Z,711
2023-08-07T08:56:18.032Z,828
2023-08-07T08:58:17.637Z,796
2023-08-07T09:00:17.158Z,919
2023-08-07T09:02:17.965Z,652
2023-08-07T09:04:17.610Z,817
2023-08-07T09:06:17.345Z,848
2023-08-07T09:08:17.920Z,870
2023-08-07T09:10:17.655Z,700
2023-08-07T09:12:17.409Z,770
2023-08-07T09:14:18.048Z,753
2023-08-07T09:16:17.877Z,823
2023-08-07T09:18:17.727Z,826
2023-08-07T09:20:17.783Z,739
2023-08-07T09:22:17.426Z,796
2023-08-07T09:24:17.408Z,881
2023-08-07T09:26:17.756Z,835
2023-08-07T09:28:17.463Z,901
2023-08-07T09:30:17.712Z,785
2023-08-07T09:32:17.804Z,777
2023-08-07T09:34:17.383Z,823
2023-08-07T09:36:18.117Z,809
2023-08-07T09:38:18.110Z,795
2023-08-07T09:40:17.938Z,804
2023-08-07T09:42:17.554Z,754
2023-08-07T09:44:18.148Z,857
2023-08-07T09:46:18.059Z,736
2023-08-07T09:48:17.773Z,883
2023-08-07T09:50:17.721Z,798
2023-08-07T09:52:17.806Z,899
2023-08-07T09:54:17.634Z,763
2023-08-07T09:56:18.573Z,815
2023-08-07T09:58:17.598Z,890
2023-08-07T10:00:17.294Z,668
2023-08-07T10:02:18.160Z,882
2023-08-07T10:04:18.014Z,830
2023-08-07T10:06:17.773Z,790
2023-08-07T10:08:17.781Z,757
2023-08-07T10:10:17.840Z,739
2023-08-07T10:12:17.613Z,870
2023-08-07T10:14:17.341Z,866
2023-08-07T10:16:18.058Z,738
2023-08-07T10:18:17.951Z,848
2023-08-07T10:20:17.524Z,773
2023-08-07T10:22:17.255Z,864
2023-08-07T10:24:18.079Z,863
2023-08-07T10:26:17.824Z,795
2023-08-07T10:28:17.591Z,939
2023-08-07T10:30:17.354Z,682
2023-08-07T10:32:17.934Z,762
2023-08-07T10:34:18.048Z,739
2023-08-07T10:36:17.964Z,835
2023-08-07T10:38:18.364Z,896
2023-08-07T10:40:18.541Z,830
2023-08-07T10:42:17.718Z,750
2023-08-07T10:44:17.374Z,784
2023-08-07T10:46:18.357Z,694
2023-08-07T10:48:17.751Z,874
2023-08-07T10:50:17.687Z,816
2023-08-07T10:52:17.428Z,796
2023-08-07T10:54:17.671Z,814
2023-08-07T10:56:17.264Z,846
2023-08-07T10:58:17.957Z,766
2023-08-07T11:00:17.832Z,804
2023-08-07T11:02:17.778Z,879
2023-08-07T11:04:17.359Z,834
2023-08-07T11:06:18.275Z,831
2023-08-07T11:08:17.804Z,693
2023-08-07T11:10:17.413Z,838
2023-08-07T11:12:17.221Z,850
2023-08-07T11:14:17.301Z,790
2023-08-07T11:16:18.075Z,762
2023-08-07T11:18:17.513Z,828
2023-08-07T11:20:18.209Z,682
2023-08-07T11:22:17.875Z,849
2023-08-07T11:24:17.490Z,832
2023-08-07T11:26:17.806Z,784
2023-08-07T11:28:17.522Z,788
2023-08-07T11:30:18.210Z,848
2023-08-07T11:32:17.796Z,788
2023-08-07T11:34:17.542Z,817
2023-08-07T11:36:17.212Z,787
2023-08-07T11:38:17.887Z,701
2023-08-07T11:40:17.551Z,814
2023-08-07T11:42:18.180Z,764
2023-08-07T11:44:17.869Z,630
2023-08-07T11:46:17.335Z,790
2023-08-07T11:48:17.955Z,811
2023-08-07T11:50:17.638Z,894
2023-08-07T11:52:17.919Z,862
2023-08-07T11:54:17.737Z,923
2023-08-07T11:56:17.720Z,747
2023-08-07T11:58:17.419Z,925
2023-08-07T12:00:24.259Z,839
2023-08-07T12:02:17.497Z,1013
2023-08-07T12:04:18.218Z,922
2023-08-07T12:06:18.204Z,888
2023-08-07T12:08:18.370Z,936
2023-08-07T12:10:20.657Z,834
2023-08-07T12:12:17.871Z,887
2023-08-07T12:14:19.567Z,875
2023-08-07T12:16:18.265Z,959
2023-08-07T12:18:17.349Z,1022
2023-08-07T12:20:17.480Z,963
2023-08-07T12:22:18.016Z,839
2023-08-07T12:24:18.117Z,984
2023-08-07T12:26:18.047Z,900
2023-08-07T12:28:17.800Z,1095
2023-08-07T12:30:17.455Z,1116
2023-08-07T12:32:18.244Z,1016
2023-08-07T12:36:21.047Z,929
2023-08-07T12:38:17.483Z,882
2023-08-07T12:44:20.466Z,1002
2023-08-07T12:48:17.815Z,1042
2023-08-07T12:50:17.570Z,927
2023-08-07T12:52:17.374Z,893
2023-08-07T12:54:17.267Z,872
2023-08-07T12:56:17.336Z,1084
2023-08-07T12:58:17.952Z,979
2023-08-07T13:00:17.995Z,1041
2023-08-07T13:02:17.350Z,1002
2023-08-07T13:04:18.001Z,1030
2023-08-07T13:06:17.689Z,1072
2023-08-07T13:08:17.898Z,1277
2023-08-07T13:10:17.903Z,1009
2023-08-07T13:12:17.894Z,924
2023-08-07T13:14:17.551Z,1010
2023-08-07T13:16:17.545Z,898
2023-08-07T13:18:17.388Z,887
2023-08-07T13:20:17.482Z,1061
2023-08-07T13:22:18.259Z,1036
2023-08-07T13:24:18.938Z,901
2023-08-07T13:26:17.941Z,899
2023-08-07T13:28:17.647Z,1197
2023-08-07T13:30:17.421Z,903
2023-08-07T13:32:18.123Z,1177
2023-08-07T13:34:17.744Z,1186
2023-08-07T13:36:17.411Z,1009
2023-08-07T13:38:17.785Z,1095
2023-08-07T13:40:17.502Z,1063
2023-08-07T13:42:18.214Z,1124
2023-08-07T13:44:18.031Z,1036
2023-08-07T13:46:17.689Z,1059
2023-08-07T13:48:17.535Z,1146
2023-08-07T13:50:17.853Z,998
2023-08-07T13:52:17.527Z,1060
2023-08-07T13:54:18.233Z,1164
2023-08-07T13:56:18.141Z,1151
2023-08-07T13:58:17.828Z,1191
2023-08-07T14:00:18.007Z,1096
2023-08-07T14:02:17.814Z,907
2023-08-07T14:04:21.144Z,1071
2023-08-07T14:06:17.452Z,941
2023-08-07T14:08:18.143Z,1049
2023-08-07T14:10:17.859Z,1027
2023-08-07T14:12:17.491Z,1029
2023-08-07T14:14:17.301Z,1150
2023-08-07T14:16:18.031Z,1120
2023-08-07T14:18:17.900Z,1051
2023-08-07T14:20:17.496Z,815
2023-08-07T14:22:19.069Z,1056
2023-08-07T14:24:18.196Z,1175
2023-08-07T14:26:17.749Z,1343
2023-08-07T14:28:17.879Z,1129
2023-08-07T14:30:17.831Z,1225
2023-08-07T14:32:17.575Z,1019
2023-08-07T14:34:18.128Z,1014
2023-08-07T14:36:17.780Z,1045
2023-08-07T14:38:17.579Z,1006
2023-08-07T14:40:17.746Z,1033
2023-08-07T14:42:18.608Z,941
2023-08-07T14:44:17.175Z,1007
2023-08-07T14:46:17.690Z,1015
2023-08-07T14:48:17.457Z,1074
2023-08-07T14:50:18.412Z,957
2023-08-07T14:52:18.138Z,952
2023-08-07T14:54:17.787Z,995
2023-08-07T14:56:17.409Z,865
2023-08-07T14:58:18.086Z,898
2023-08-07T15:00:17.751Z,974
2023-08-07T15:02:17.713Z,768
2023-08-07T15:04:17.855Z,911
2023-08-07T15:06:17.974Z,850
2023-08-07T15:08:17.986Z,858
2023-08-07T15:10:17.384Z,925
2023-08-07T15:12:17.984Z,787
2023-08-07T15:14:17.388Z,865
2023-08-07T15:16:18.012Z,861
2023-08-07T15:18:17.864Z,1008
2023-08-07T15:20:17.937Z,1296
2023-08-07T15:22:17.724Z,1086
2023-08-07T15:24:17.382Z,1243
2023-08-07T15:26:18.080Z,990
2023-08-07T15:28:17.825Z,1013
2023-08-07T15:30:17.526Z,1719
2023-08-07T15:32:18.274Z,1225
2023-08-07T15:34:17.936Z,1069
2023-08-07T15:36:17.638Z,999
2023-08-07T15:38:17.289Z,947
2023-08-07T15:40:18.133Z,1306
2023-08-07T15:42:17.808Z,1862
2023-08-07T15:44:17.986Z,1286
2023-08-07T15:46:17.586Z,1196
2023-08-07T15:48:17.548Z,0
2023-08-07T15:50:17.240Z,1648
2023-08-07T15:52:17.873Z,1212
2023-08-07T15:54:17.722Z,1067
2023-08-07T15:56:17.351Z,960
2023-08-07T15:58:17.661Z,886
2023-08-07T16:00:17.327Z,890
2023-08-07T16:02:17.998Z,1214
2023-08-07T16:04:17.734Z,864
2023-08-07T16:06:17.324Z,878
2023-08-07T16:08:17.936Z,914
2023-08-07T16:10:17.580Z,835
2023-08-07T16:12:17.157Z,954
2023-08-07T16:14:17.845Z,792
2023-08-07T16:16:17.964Z,768
2023-08-07T16:18:17.724Z,830
2023-08-07T16:20:17.418Z,861
2023-08-07T16:22:17.995Z,804
2023-08-07T16:24:17.844Z,902
2023-08-07T16:26:17.429Z,934
2023-08-07T16:28:18.043Z,748
2023-08-07T16:30:17.617Z,768
2023-08-07T16:32:17.248Z,770
2023-08-07T16:34:17.952Z,661
2023-08-07T16:36:17.793Z,809
2023-08-07T16:38:17.422Z,703
2023-08-07T16:40:17.841Z,745
2023-08-07T16:42:17.668Z,839
2023-08-07T16:44:17.299Z,753
2023-08-07T16:46:17.272Z,776
2023-08-07T16:48:18.069Z,752
2023-08-07T16:50:17.870Z,774
2023-08-07T16:52:17.748Z,754
2023-08-07T16:54:17.411Z,828
2023-08-07T16:56:17.813Z,778
2023-08-07T16:58:17.408Z,756
2023-08-07T17:00:17.643Z,764
2023-08-07T17:02:17.915Z,798
2023-08-07T17:04:17.499Z,771
2023-08-07T17:06:17.457Z,726
2023-08-07T17:08:17.488Z,711
2023-08-07T17:10:18.095Z,753
2023-08-07T17:12:17.953Z,638
2023-08-07T17:14:17.567Z,603
2023-08-07T17:16:17.945Z,618
2023-08-07T17:18:17.698Z,775
2023-08-07T17:20:17.284Z,716
2023-08-07T17:22:17.175Z,647
2023-08-07T17:24:17.700Z,733
2023-08-07T17:26:17.503Z,691
2023-08-07T17:28:17.602Z,689
2023-08-07T17:30:17.373Z,616
2023-08-07T17:32:17.948Z,641
2023-08-07T17:34:17.875Z,744
2023-08-07T17:36:17.520Z,643
2023-08-07T17:38:18.173Z,711
2023-08-07T17:40:17.953Z,630
2023-08-07T17:42:17.516Z,781
2023-08-07T17:44:17.845Z,650
2023-08-07T17:46:17.803Z,675
2023-08-07T17:48:17.408Z,564
2023-08-07T17:50:17.300Z,673
2023-08-07T17:52:17.898Z,746
2023-08-07T17:54:17.250Z,640
2023-08-07T17:56:17.869Z,585
2023-08-07T17:58:17.556Z,752
2023-08-07T18:00:17.228Z,663
2023-08-07T18:02:17.862Z,681
2023-08-07T18:04:17.773Z,707
2023-08-07T18:06:17.399Z,592
2023-08-07T18:08:18.058Z,729
2023-08-07T18:10:17.712Z,747
2023-08-07T18:12:17.351Z,626
2023-08-07T18:14:17.226Z,667
2023-08-07T18:16:17.912Z,679
2023-08-07T18:18:17.642Z,782
2023-08-07T18:20:17.707Z,735
2023-08-07T18:22:17.297Z,700
2023-08-07T18:24:17.941Z,706
2023-08-07T18:26:17.538Z,726
2023-08-07T18:28:17.944Z,675
2023-08-07T18:30:18.029Z,699
2023-08-07T18:32:17.717Z,732
2023-08-07T18:34:17.287Z,711
2023-08-07T18:36:17.171Z,707
2023-08-07T18:38:17.785Z,728
2023-08-07T18:40:17.696Z,659
2023-08-07T18:42:17.298Z,606
2023-08-07T18:44:17.931Z,748
2023-08-07T18:46:17.305Z,649
2023-08-07T18:48:18.054Z,811
2023-08-07T18:50:17.725Z,666
2023-08-07T18:52:17.340Z,700
2023-08-07T18:54:17.978Z,812
2023-08-07T18:56:17.622Z,716
2023-08-07T18:58:17.305Z,812
2023-08-07T19:00:17.939Z,801
2023-08-07T19:02:17.587Z,818
2023-08-07T19:04:17.323Z,791
2023-08-07T19:06:17.699Z,806
2023-08-07T19:08:17.284Z,625
2023-08-07T19:10:17.868Z,723
2023-08-07T19:12:17.851Z,656
2023-08-07T19:14:17.490Z,630
2023-08-07T19:16:18.122Z,822
2023-08-07T19:18:17.904Z,807
2023-08-07T19:20:17.501Z,764
2023-08-07T19:22:17.886Z,891
2023-08-07T19:24:17.458Z,735
2023-08-07T19:26:17.217Z,870
2023-08-07T19:28:17.858Z,783
2023-08-07T19:30:17.644Z,764
2023-08-07T19:32:17.294Z,810
2023-08-07T19:34:17.867Z,864
2023-08-07T19:36:17.435Z,766
2023-08-07T19:38:17.343Z,762
2023-08-07T19:40:17.980Z,869
2023-08-07T19:42:17.563Z,768
2023-08-07T19:44:17.726Z,790
2023-08-07T19:46:17.385Z,758
2023-08-07T19:48:17.288Z,729
2023-08-07T19:50:17.919Z,681
2023-08-07T19:52:17.851Z,735
2023-08-07T19:54:17.766Z,713
2023-08-07T19:56:17.822Z,705
2023-08-07T19:58:17.575Z,654
2023-08-07T20:00:17.213Z,784
2023-08-07T20:02:17.872Z,656
2023-08-07T20:04:17.528Z,679
2023-08-07T20:06:17.973Z,862
2023-08-07T20:08:17.543Z,764
2023-08-07T20:10:17.191Z,830
2023-08-07T20:12:17.990Z,767
2023-08-07T20:14:17.652Z,755
2023-08-07T20:16:17.305Z,889
2023-08-07T20:18:17.341Z,685
2023-08-07T20:20:17.744Z,786
2023-08-07T20:22:18.083Z,683
2023-08-07T20:24:17.638Z,703
2023-08-07T20:26:17.246Z,794
2023-08-07T20:28:18.091Z,893
2023-08-07T20:30:17.696Z,866
2023-08-07T20:32:17.641Z,806
2023-08-07T20:34:17.298Z,819
2023-08-07T20:36:17.968Z,763
2023-08-07T20:38:17.564Z,703
2023-08-07T20:40:17.188Z,680
2023-08-07T20:42:17.805Z,757
2023-08-07T20:44:17.427Z,754
2023-08-07T20:46:18.027Z,778
2023-08-07T20:48:17.814Z,801
2023-08-07T20:50:17.430Z,890
2023-08-07T20:52:18.084Z,720
2023-08-07T20:54:19.009Z,764
2023-08-07T20:56:17.679Z,720
2023-08-07T20:58:17.333Z,746
2023-08-07T21:00:17.942Z,818
2023-08-07T21:02:17.542Z,852
2023-08-07T21:04:18.143Z,846
2023-08-07T21:06:17.737Z,801
2023-08-07T21:08:17.383Z,832
2023-08-07T21:10:17.914Z,811
2023-08-07T21:12:17.778Z,747
2023-08-07T21:14:17.330Z,778
2023-08-07T21:16:17.272Z,752
2023-08-07T21:18:18.048Z,827
2023-08-07T21:20:17.621Z,683
2023-08-07T21:22:17.919Z,645
2023-08-07T21:24:17.555Z,825
2023-08-07T21:26:17.394Z,612
2023-08-07T21:28:17.986Z,608
2023-08-07T21:30:17.688Z,814
2023-08-07T21:32:17.819Z,604
2023-08-07T21:34:17.478Z,794
2023-08-07T21:36:17.986Z,789
2023-08-07T21:38:17.679Z,699
2023-08-07T21:40:17.413Z,762
2023-08-07T21:42:17.562Z,713
2023-08-07T21:44:18.162Z,754
2023-08-07T21:46:17.738Z,818
2023-08-07T21:48:17.349Z,703
2023-08-07T21:50:17.973Z,579
2023-08-07T21:52:17.634Z,691
2023-08-07T21:54:17.180Z,717
2023-08-07T21:56:18.116Z,714
2023-08-07T21:58:17.221Z,660
2023-08-07T22:00:17.324Z,760
2023-08-07T22:02:17.805Z,650
2023-08-07T22:04:17.392Z,760
2023-08-07T22:06:17.993Z,583
2023-08-07T22:08:17.269Z,672
2023-08-07T22:10:17.853Z,638
2023-08-07T22:12:17.475Z,668
2023-08-07T22:14:17.237Z,645
2023-08-07T22:16:17.962Z,684
2023-08-07T22:18:17.856Z,627
2023-08-07T22:20:17.549Z,573
2023-08-07T22:22:18.148Z,697
2023-08-07T22:24:17.860Z,591
2023-08-07T22:26:17.540Z,704
2023-08-07T22:28:18.171Z,565
2023-08-07T22:30:17.801Z,699
2023-08-07T22:32:17.579Z,660
2023-08-07T22:34:17.333Z,656
2023-08-07T22:36:17.976Z,632
2023-08-07T22:38:17.556Z,630
2023-08-07T22:40:17.365Z,618
2023-08-07T22:42:18.264Z,623
2023-08-07T22:44:17.846Z,534
2023-08-07T22:46:17.503Z,603
2023-08-07T22:48:18.157Z,639
2023-08-07T22:50:17.822Z,617
2023-08-07T22:52:17.825Z,629
2023-08-07T22:54:17.271Z,634
2023-08-07T22:56:18.145Z,643
2023-08-07T22:58:17.644Z,555
2023-08-07T23:00:17.235Z,620
2023-08-07T23:02:17.935Z,663
2023-08-07T23:04:17.572Z,639
2023-08-07T23:06:17.132Z,655
2023-08-07T23:08:17.756Z,589
2023-08-07T23:10:17.412Z,564
2023-08-07T23:12:17.640Z,648
2023-08-07T23:14:17.645Z,672
2023-08-07T23:16:17.735Z,690
2023-08-07T23:18:18.040Z,631
2023-08-07T23:20:17.625Z,599
2023-08-07T23:22:17.175Z,679
2023-08-07T23:24:17.871Z,602
2023-08-07T23:26:17.225Z,615
2023-08-07T23:28:17.397Z,639
2023-08-07T23:30:17.807Z,639
2023-08-07T23:32:17.876Z,644
2023-08-07T23:34:17.460Z,704
2023-08-07T23:36:18.053Z,696
2023-08-07T23:38:17.772Z,540
2023-08-07T23:40:17.360Z,716
2023-08-07T23:42:17.968Z,686
2023-08-07T23:44:17.870Z,612
2023-08-07T23:46:17.291Z,629
2023-08-07T23:48:18.035Z,503
2023-08-07T23:50:17.668Z,628
2023-08-07T23:52:17.283Z,606
2023-08-07T23:54:17.936Z,560
2023-08-07T23:56:17.518Z,621
2023-08-07T23:58:18.111Z,591
